Time;durP1;ratioP1;P1;durP2;ratioP2;P2;SDS_P1;SDS_P2;PMS_P1;PMS_P2;Temp;Humidity;BMP_temperature;BMP_pressure;BME280_temperature;BME280_humidity;BME280_pressure;Samples;Min_cycle;Max_cycle;Signal;HPM_P1;HPM_P2
2023/09/19 00:00:33;;;;;;;8.18;2.10;;;;;;;2.50;100.00;98092.25;4952886;29;20500;-70
2023/09/19 00:03:00;;;;;;;7.53;2.38;;;;;;;2.40;100.00;98071.28;4952525;29;20455;-69
2023/09/19 00:05:28;;;;;;;5.32;2.03;;;;;;;1.21;100.00;97892.47;4952393;29;20058;-70
2023/09/19 00:07:58;;;;;;;4.88;2.25;;;;;;;1.31;100.00;97919.50;4952811;29;20047;-69
2023/09/19 00:10:26;;;;;;;7.93;2.20;;;;;;;1.37;100.00;97918.00;4950959;29;20062;-69
2023/09/19 00:12:57;;;;;;;10.32;2.50;;;;;;;1.70;100.00;97963.63;4952450;29;20074;-70
2023/09/19 00:15:25;;;;;;;8.55;2.95;;;;;;;1.07;100.00;97878.16;4953533;29;20110;-69
2023/09/19 00:17:52;;;;;;;8.55;2.67;;;;;;;1.08;100.00;97882.44;4951392;29;20058;-69
2023/09/19 00:20:19;;;;;;;4.63;2.33;;;;;;;1.29;100.00;97905.63;4935934;29;20048;-69
2023/09/19 00:22:46;;;;;;;4.78;2.20;;;;;;;1.29;100.00;97907.47;4935740;29;20055;-69
2023/09/19 00:25:15;;;;;;;8.95;2.42;;;;;;;1.11;100.00;97894.47;4936461;29;20051;-69
2023/09/19 00:27:42;;;;;;;6.45;2.55;;;;;;;1.30;100.00;97920.50;4937513;29;20043;-69
2023/09/19 00:30:24;;;;;;;7.18;2.60;;;;;;;1.60;100.00;97966.47;4937576;29;20072;-68
2023/09/19 00:32:54;;;;;;;8.60;2.63;;;;;;;0.71;100.00;97841.63;4936617;29;20079;-69
2023/09/19 00:35:24;;;;;;;8.02;2.75;;;;;;;1.28;100.00;97922.50;4938026;29;20059;-68
2023/09/19 00:37:52;;;;;;;9.20;2.50;;;;;;;1.33;100.00;97940.47;4937541;29;20488;-69
2023/09/19 00:40:19;;;;;;;6.93;3.28;;;;;;;1.23;100.00;97930.09;4937218;29;20059;-69
2023/09/19 00:42:47;;;;;;;6.40;3.22;;;;;;;1.31;100.00;97932.72;4936730;29;20051;-69
2023/09/19 00:45:16;;;;;;;6.22;2.60;;;;;;;1.42;100.00;97956.13;4937063;29;20059;-69
2023/09/19 00:47:45;;;;;;;6.63;2.70;;;;;;;1.44;100.00;97961.25;4937007;29;20068;-69
2023/09/19 00:50:14;;;;;;;10.27;2.97;;;;;;;1.26;100.00;97937.66;4936345;29;20424;-69
2023/09/19 00:52:42;;;;;;;5.32;2.35;;;;;;;1.43;100.00;97970.97;4937773;29;20106;-68
2023/09/19 00:55:10;;;;;;;6.57;2.10;;;;;;;1.18;100.00;97938.50;4937460;29;20047;-68
2023/09/19 00:57:38;;;;;;;9.65;2.25;;;;;;;1.14;100.00;97936.38;4936293;29;20075;-68
2023/09/19 01:00:11;;;;;;;9.15;2.55;;;;;;;1.00;100.00;97919.41;4937098;29;20055;-69
2023/09/19 01:02:38;;;;;;;9.70;2.60;;;;;;;1.28;100.00;97962.09;4937235;29;20051;-69
2023/09/19 01:08:55;;;;;;;6.38;2.95;;;;;;;1.28;100.00;97954.19;4716799;29;20064;-69
2023/09/19 01:11:34;;;;;;;6.38;2.40;;;;;;;1.20;100.00;97943.66;4937192;29;20531;-69
2023/09/19 01:14:37;;;;;;;8.68;2.78;;;;;;;1.07;100.00;97923.03;4936072;29;20479;-70
2023/09/19 01:17:22;;;;;;;8.40;2.45;;;;;;;1.12;100.00;97947.09;4923397;29;20493;-69
2023/09/19 01:20:16;;;;;;;7.35;2.85;;;;;;;1.12;100.00;97949.75;4916753;29;20044;-71
2023/09/19 01:23:04;;;;;;;8.63;2.50;;;;;;;1.32;100.00;97973.16;4914483;29;20052;-70
2023/09/19 01:25:34;;;;;;;6.45;2.80;;;;;;;1.30;100.00;97977.78;4915736;29;20481;-71
2023/09/19 01:28:31;;;;;;;7.93;2.15;;;;;;;1.39;100.00;97977.59;4918254;29;20056;-67
2023/09/19 01:31:01;;;;;;;9.63;2.40;;;;;;;1.41;100.00;97990.66;4891657;29;20048;-67
2023/09/19 01:33:34;;;;;;;6.93;2.80;;;;;;;2.19;100.00;98107.06;4919726;29;20067;-68
2023/09/19 01:36:00;;;;;;;6.97;2.08;;;;;;;2.23;100.00;98110.19;4923181;29;20052;-68
2023/09/19 01:38:27;;;;;;;5.03;2.00;;;;;;;2.54;100.00;98149.13;4921866;29;20083;-67
2023/09/19 01:41:06;;;;;;;5.35;2.53;;;;;;;2.58;100.00;98161.00;4922959;29;20044;-69
2023/09/19 01:43:40;;;;;;;11.65;2.60;;;;;;;2.00;100.00;98085.50;4923746;29;20117;-68
2023/09/19 01:46:14;;;;;;;8.32;2.25;;;;;;;1.26;100.00;97966.72;4923388;29;20382;-66
2023/09/19 01:48:47;;;;;;;7.88;2.47;;;;;;;2.40;100.00;98132.97;4922177;29;20119;-66
2023/09/19 01:51:22;;;;;;;8.65;2.75;;;;;;;2.18;100.00;98108.09;4923287;29;20485;-67
2023/09/19 01:54:03;;;;;;;10.88;2.60;;;;;;;1.88;100.00;98055.91;4922804;29;20052;-68
2023/09/19 01:56:50;;;;;;;8.60;2.20;;;;;;;1.19;100.00;97949.91;4922664;29;20052;-67
2023/09/19 01:59:24;;;;;;;6.22;2.40;;;;;;;-0.79;100.00;97656.69;4922526;29;20048;-67
2023/09/19 02:01:52;;;;;;;8.25;2.08;;;;;;;-0.97;100.00;97633.16;4922788;29;20103;-67
2023/09/19 02:04:19;;;;;;;8.73;2.53;;;;;;;-0.63;100.00;97693.56;4923223;29;20052;-67
2023/09/19 02:06:47;;;;;;;8.32;2.47;;;;;;;-1.45;100.00;97580.28;4922830;29;20154;-67
2023/09/19 02:09:17;;;;;;;7.38;2.50;;;;;;;-0.91;100.00;97669.34;4922616;29;20055;-69
2023/09/19 02:11:43;;;;;;;8.73;2.35;;;;;;;-1.19;100.00;97631.97;4922307;29;20107;-69
2023/09/19 02:14:10;;;;;;;7.60;2.53;;;;;;;-0.91;100.00;97670.19;4922315;29;20103;-70
2023/09/19 02:16:37;;;;;;;4.93;2.42;;;;;;;-1.47;100.00;97589.31;4919974;29;20048;-68
2023/09/19 02:19:07;;;;;;;7.95;3.15;;;;;;;-1.59;100.00;97570.41;4947498;29;20061;-68
2023/09/19 02:21:34;;;;;;;6.63;2.33;;;;;;;-1.20;100.00;97639.03;4958999;29;20043;-69
2023/09/19 02:24:01;;;;;;;14.43;2.45;;;;;;;-1.76;100.00;97561.63;4959296;29;20415;-70
2023/09/19 02:26:27;;;;;;;10.02;2.78;;;;;;;-3.07;100.00;97360.75;4958784;29;20169;-69
2023/09/19 02:28:54;;;;;;;5.75;2.70;;;;;;;-1.24;100.00;97648.22;4958927;29;20055;-69
2023/09/19 02:31:20;;;;;;;5.72;2.50;;;;;;;-1.68;100.00;97584.50;4959019;29;20396;-69
2023/09/19 02:33:47;;;;;;;5.35;2.33;;;;;;;-2.20;100.00;97509.28;4959008;29;20051;-68
2023/09/19 02:36:16;;;;;;;7.10;2.55;;;;;;;-1.76;100.00;97573.97;4958885;29;20051;-69
2023/09/19 02:38:44;;;;;;;5.65;2.83;;;;;;;-2.25;100.00;97505.47;4958025;29;20113;-69
2023/09/19 02:41:10;;;;;;;9.30;2.50;;;;;;;-3.22;100.00;97343.97;4958634;29;20522;-69
2023/09/19 02:43:37;;;;;;;3.95;2.33;;;;;;;-3.18;100.00;97347.94;4958129;29;20506;-69
2023/09/19 02:46:05;;;;;;;8.57;2.47;;;;;;;-1.80;100.00;97573.47;4957986;28;20075;-68
2023/09/19 02:48:32;;;;;;;5.70;2.25;;;;;;;-1.95;100.00;97560.09;4958248;29;20074;-69
2023/09/19 02:50:58;;;;;;;11.27;3.00;;;;;;;-1.75;100.00;97584.34;4958190;29;20074;-69
2023/09/19 02:53:25;;;;;;;10.18;2.20;;;;;;;-1.46;100.00;97631.25;4958437;29;20047;-69
2023/09/19 02:55:52;;;;;;;9.40;2.40;;;;;;;-1.68;100.00;97602.88;4958790;29;20044;-69
2023/09/19 02:58:19;;;;;;;7.97;2.75;;;;;;;-1.70;100.00;97610.13;4958836;29;20055;-69
2023/09/19 03:00:47;;;;;;;7.95;2.85;;;;;;;-1.53;100.00;97632.88;4959490;29;20047;-68
2023/09/19 03:03:15;;;;;;;5.35;2.42;;;;;;;-2.01;100.00;97566.00;4958004;29;20052;-69
2023/09/19 03:05:47;;;;;;;9.95;2.30;;;;;;;-1.46;100.00;97654.91;4958722;29;20086;-69
2023/09/19 03:08:17;;;;;;;;;;;;;;;-1.64;100.00;97615.56;4957529;29;20129;-69
2023/09/19 03:10:46;;;;;;;3.55;2.00;;;;;;;-1.41;100.00;97657.88;4957879;29;19986;-68
2023/09/19 03:13:13;;;;;;;8.43;2.28;;;;;;;-1.27;100.00;97674.03;4958065;29;20055;-69
2023/09/19 03:15:46;;;;;;;9.80;2.05;;;;;;;-1.46;100.00;97665.41;4957021;29;20086;-69
2023/09/19 03:18:13;;;;;;;6.00;2.53;;;;;;;-1.35;100.00;97671.38;4957192;29;20051;-69
2023/09/19 03:20:40;;;;;;;5.88;2.35;;;;;;;0.04;100.00;97893.69;4957188;29;20481;-68
2023/09/19 03:23:07;;;;;;;4.90;2.08;;;;;;;1.37;100.00;98109.03;4957153;29;20452;-68
2023/09/19 03:25:35;;;;;;;5.10;1.88;;;;;;;1.65;100.00;98157.06;4957380;29;20055;-68
2023/09/19 03:28:06;;;;;;;6.72;1.95;;;;;;;1.81;100.00;98184.47;4956615;29;20518;-69
2023/09/19 03:30:34;;;;;;;3.97;2.10;;;;;;;2.47;100.00;98291.88;4957796;29;20146;-68
2023/09/19 03:33:00;;;;;;;7.55;2.65;;;;;;;2.41;100.00;98288.09;4956726;29;20287;-69
2023/09/19 03:35:27;;;;;;;5.63;2.28;;;;;;;2.49;100.00;98304.97;4956897;29;20047;-69
2023/09/19 03:37:55;;;;;;;6.45;2.70;;;;;;;2.43;100.00;98299.31;4940039;29;20467;-69
2023/09/19 03:40:23;;;;;;;8.18;2.00;;;;;;;2.32;100.00;98286.44;4957382;29;20055;-68
2023/09/19 03:42:50;;;;;;;3.40;1.98;;;;;;;2.52;100.00;98317.88;4957085;29;20063;-69
2023/09/19 03:45:18;;;;;;;3.13;1.60;;;;;;;3.69;100.00;98500.06;4956741;29;20171;-69
2023/09/19 03:47:47;;;;;;;3.17;2.45;;;;;;;4.03;100.00;98573.22;4958887;29;20051;-68
2023/09/19 03:50:17;;;;;;;5.53;2.47;;;;;;;3.95;100.00;98567.97;4958757;29;20057;-68
2023/09/19 03:52:44;;;;;;;4.55;1.98;;;;;;;4.07;100.00;98596.63;4958311;29;20105;-69
2023/09/19 03:55:11;;;;;;;4.28;1.90;;;;;;;5.95;100.00;98900.63;4959344;29;20057;-67
2023/09/19 03:57:38;;;;;;;7.07;2.10;;;;;;;7.03;100.00;99068.47;4957909;28;20099;-67
2023/09/19 04:00:11;;;;;;;5.20;1.70;;;;;;;8.06;100.00;99249.50;4958488;29;20047;-67
2023/09/19 04:02:39;;;;;;;3.17;1.60;;;;;;;9.14;100.00;99418.59;4958959;29;20051;-69
2023/09/19 04:05:06;;;;;;;3.72;1.70;;;;;;;9.48;100.00;99475.16;4958464;29;20401;-67
2023/09/19 04:07:34;;;;;;;6.68;1.90;;;;;;;10.06;100.00;99560.19;4957342;29;20059;-67
2023/09/19 04:10:01;;;;;;;5.13;1.90;;;;;;;10.30;100.00;99604.66;4940881;29;20071;-67
2023/09/19 04:12:28;;;;;;;4.47;1.90;;;;;;;10.44;100.00;99626.13;4958197;29;20051;-67
2023/09/19 04:14:54;;;;;;;5.35;1.67;;;;;;;10.79;100.00;99665.75;4958979;29;20051;-67
2023/09/19 04:17:21;;;;;;;4.25;1.65;;;;;;;10.75;100.00;99673.34;4958328;29;20047;-68
2023/09/19 04:19:48;;;;;;;4.97;1.80;;;;;;;10.76;100.00;99676.88;4940100;29;20419;-68
2023/09/19 04:22:14;;;;;;;3.60;1.90;;;;;;;10.74;100.00;99679.75;4939662;29;20053;-67
2023/09/19 04:24:41;;;;;;;5.03;1.83;;;;;;;10.69;100.00;99683.00;4940061;29;20400;-66
2023/09/19 04:27:09;;;;;;;7.47;1.60;;;;;;;10.66;100.00;99679.84;4939157;29;20106;-67
2023/09/19 04:29:37;;;;;;;3.22;1.15;;;;;;;10.65;100.00;99687.06;4939289;29;20050;-67
2023/09/19 04:32:04;;;;;;;2.35;1.40;;;;;;;10.49;100.00;99674.63;4938982;29;20177;-67
2023/09/19 04:34:31;;;;;;;6.32;1.92;;;;;;;10.50;100.00;99676.31;4921597;29;20131;-66
2023/09/19 04:37:00;;;;;;;8.27;1.92;;;;;;;10.55;100.00;99688.34;4938630;29;20055;-69
2023/09/19 04:39:27;;;;;;;2.15;1.20;;;;;;;10.50;100.00;99684.38;4935834;29;20067;-69
2023/09/19 04:41:56;;;;;;;7.70;1.60;;;;;;;10.51;100.00;99693.25;4933238;29;20099;-69
2023/09/19 04:44:23;;;;;;;4.80;1.63;;;;;;;10.69;100.00;99719.72;4933532;29;20055;-70
2023/09/19 04:46:50;;;;;;;4.78;1.63;;;;;;;10.92;100.00;99751.78;4933256;29;20048;-69
2023/09/19 04:49:18;;;;;;;4.78;1.55;;;;;;;10.93;100.00;99765.03;4933314;29;20106;-69
2023/09/19 04:51:46;;;;;;;2.17;1.50;;;;;;;10.92;100.00;99766.03;4916763;29;20052;-69
2023/09/19 04:54:15;;;;;;;4.40;1.42;;;;;;;10.94;100.00;99781.97;4936021;29;20059;-67
2023/09/19 04:56:42;;;;;;;3.38;1.33;;;;;;;10.96;100.00;99791.50;4938754;29;20577;-67
2023/09/19 04:59:10;;;;;;;5.07;1.42;;;;;;;11.12;100.00;99808.44;4938055;29;20044;-68
2023/09/19 05:01:37;;;;;;;3.05;1.52;;;;;;;11.25;100.00;99832.78;4938699;29;20508;-68
2023/09/19 05:04:04;;;;;;;8.23;1.63;;;;;;;11.30;100.00;99846.44;4938325;29;20135;-67
2023/09/19 05:06:31;;;;;;;4.03;1.50;;;;;;;11.41;100.00;99858.56;4937617;29;20103;-67
2023/09/19 05:08:58;;;;;;;6.80;1.52;;;;;;;11.37;100.00;99868.84;4937830;28;20078;-68
2023/09/19 05:11:25;;;;;;;2.30;1.40;;;;;;;11.40;100.00;99871.16;4941537;29;20048;-67
2023/09/19 05:13:52;;;;;;;3.67;1.40;;;;;;;11.39;100.00;99877.56;4941271;29;20051;-67
2023/09/19 05:16:19;;;;;;;3.65;1.55;;;;;;;11.49;100.00;99889.91;4941409;29;20076;-66
2023/09/19 05:18:46;;;;;;;6.07;1.60;;;;;;;11.52;100.00;99906.47;4953491;29;20431;-67
2023/09/19 05:21:13;;;;;;;4.13;1.60;;;;;;;11.47;100.00;99906.19;4962180;29;20051;-67
2023/09/19 05:23:40;;;;;;;4.55;1.73;;;;;;;11.45;100.00;99914.44;4961676;29;20039;-66
2023/09/19 05:26:08;;;;;;;5.60;1.90;;;;;;;11.44;100.00;99909.22;4960821;29;20040;-67
2023/09/19 05:28:35;;;;;;;9.07;4.13;;;;;;;11.53;100.00;99926.09;4960296;29;20047;-67
2023/09/19 05:31:02;;;;;;;7.00;2.97;;;;;;;11.56;100.00;99931.94;4960402;29;20058;-66
2023/09/19 05:33:30;;;;;;;11.15;2.15;;;;;;;11.50;100.00;99937.22;4960819;29;20526;-67
2023/09/19 05:35:57;;;;;;;4.53;1.88;;;;;;;11.50;100.00;99932.66;4943526;29;20058;-66
2023/09/19 05:38:26;;;;;;;5.18;1.80;;;;;;;11.68;100.00;99967.25;4960414;29;20052;-67
2023/09/19 05:40:53;;;;;;;7.75;1.88;;;;;;;11.77;100.00;99976.88;4960712;29;20420;-67
2023/09/19 05:43:20;;;;;;;5.90;2.08;;;;;;;11.80;100.00;99986.44;4960011;29;20047;-66
2023/09/19 05:45:48;;;;;;;5.75;2.20;;;;;;;11.52;100.00;99972.75;4960623;29;20487;-69
2023/09/19 05:48:15;;;;;;;7.60;1.88;;;;;;;11.49;100.00;99962.41;4959491;29;20048;-67
2023/09/19 05:50:46;;;;;;;10.45;2.60;;;;;;;11.44;100.00;99958.41;4960339;29;20058;-67
2023/09/19 05:53:14;;;;;;;9.77;2.08;;;;;;;11.40;100.00;99970.53;4959900;29;20044;-67
2023/09/19 05:55:41;;;;;;;12.20;2.38;;;;;;;11.51;100.00;99979.16;4959577;29;20073;-67
2023/09/19 05:58:09;;;;;;;6.93;1.70;;;;;;;11.50;100.00;99982.88;4960164;29;20435;-66
2023/09/19 06:00:36;;;;;;;5.65;1.80;;;;;;;11.38;100.00;99977.97;4960054;29;20102;-66
2023/09/19 06:03:05;;;;;;;5.22;1.73;;;;;;;11.37;100.00;99981.66;4959458;29;20047;-66
2023/09/19 06:05:32;;;;;;;6.28;3.00;;;;;;;11.39;100.00;99992.22;4958899;29;20117;-66
2023/09/19 06:07:59;;;;;;;9.38;2.40;;;;;;;11.40;100.00;99989.34;4959202;29;20065;-67
2023/09/19 06:10:28;;;;;;;7.45;2.10;;;;;;;11.53;100.00;100012.88;4960115;29;20047;-68
2023/09/19 06:12:57;;;;;;;6.88;2.28;;;;;;;11.62;100.00;100022.53;4958535;29;20047;-68
2023/09/19 06:15:25;;;;;;;7.97;2.30;;;;;;;11.70;100.00;100027.03;4941474;29;20055;-69
2023/09/19 06:17:57;;;;;;;8.43;2.15;;;;;;;11.98;100.00;100064.84;4938263;29;20048;-68
2023/09/19 06:20:25;;;;;;;7.55;2.10;;;;;;;12.15;100.00;100079.75;4939998;29;20061;-67
2023/09/19 06:22:53;;;;;;;7.25;2.08;;;;;;;12.39;100.00;100115.44;4939306;29;20047;-67
2023/09/19 06:25:20;;;;;;;5.07;1.85;;;;;;;12.45;100.00;100116.53;4939547;29;20052;-68
2023/09/19 06:27:53;;;;;;;7.82;1.90;;;;;;;12.40;100.00;100117.13;4938666;29;20389;-66
2023/09/19 06:30:22;;;;;;;6.88;2.03;;;;;;;12.41;100.00;100114.22;4938740;29;20476;-66
2023/09/19 06:32:49;;;;;;;9.95;1.98;;;;;;;12.71;100.00;100141.09;4939727;29;20067;-66
2023/09/19 06:35:17;;;;;;;4.88;1.98;;;;;;;12.99;100.00;100170.03;4938291;29;20048;-70
2023/09/19 08:08:42;;;;;;;6.80;2.10;;;;;;;17.54;100.00;100321.63;5161559;23;20090;-70
2023/09/19 08:11:12;;;;;;;12.02;2.92;;;;;;;17.80;100.00;100317.94;4931610;29;20058;-70
2023/09/19 08:13:48;;;;;;;10.02;2.30;;;;;;;18.13;94.68;100310.63;4932174;29;20071;-71
2023/09/19 08:16:17;;;;;;;8.70;2.55;;;;;;;18.09;91.57;100321.91;4931944;29;20418;-70
2023/09/19 08:18:48;;;;;;;13.88;2.33;;;;;;;17.77;90.73;100312.97;4942479;29;20094;-70
2023/09/19 08:21:16;;;;;;;10.00;2.20;;;;;;;17.23;100.00;100307.97;4950862;29;20085;-69
2023/09/19 08:23:44;;;;;;;8.10;2.30;;;;;;;17.66;97.73;100310.13;4952156;29;20051;-69
2023/09/19 08:26:11;;;;;;;8.02;2.13;;;;;;;17.37;100.00;100312.31;4951450;29;20408;-70
2023/09/19 08:28:40;;;;;;;9.00;2.20;;;;;;;17.14;100.00;100319.06;4951115;29;20043;-70
2023/09/19 08:31:08;;;;;;;11.38;2.70;;;;;;;17.30;100.00;100311.47;4951131;29;20060;-70
2023/09/19 08:33:37;;;;;;;9.18;2.60;;;;;;;17.64;98.07;100317.63;4951526;29;20047;-69
2023/09/19 08:36:05;;;;;;;7.53;2.20;;;;;;;17.59;95.69;100319.09;4952691;29;20059;-68
2023/09/19 08:38:36;;;;;;;9.73;2.42;;;;;;;18.25;87.47;100325.19;4954106;29;20123;-67
2023/09/19 08:41:08;;;;;;;13.10;2.40;;;;;;;18.54;81.69;100331.84;4953403;29;20054;-68
2023/09/19 08:43:36;;;;;;;13.43;2.50;;;;;;;18.23;81.27;100328.13;4955145;28;20047;-67
2023/09/19 08:46:13;;;;;;;9.02;2.70;;;;;;;18.40;83.42;100322.97;4957223;29;20139;-67
2023/09/19 08:49:04;;;;;;;7.50;2.60;;;;;;;19.23;75.28;100338.09;4941051;29;20050;-68
2023/09/19 08:51:48;;;;;;;11.10;2.83;;;;;;;19.23;72.98;100343.53;4958324;29;20079;-68
2023/09/19 08:54:22;;;;;;;8.20;2.28;;;;;;;19.57;68.81;100333.91;4957961;29;20051;-69
2023/09/19 08:56:50;;;;;;;6.07;2.22;;;;;;;19.76;65.39;100337.44;4957334;29;20062;-68
2023/09/19 08:59:24;;;;;;;17.42;2.75;;;;;;;19.49;67.76;100342.38;4957263;29;20052;-68
2023/09/19 09:01:53;;;;;;;15.80;3.08;;;;;;;19.48;66.98;100352.44;4957792;29;20043;-70
2023/09/19 09:04:22;;;;;;;5.60;2.10;;;;;;;19.24;68.33;100347.91;4957103;29;20055;-68
2023/09/19 09:06:53;;;;;;;5.97;2.47;;;;;;;20.04;63.03;100350.47;4946138;29;20047;-69
2023/09/19 09:09:20;;;;;;;12.68;3.05;;;;;;;21.00;59.31;100353.09;4938085;29;20051;-68
2023/09/19 09:11:51;;;;;;;17.50;2.55;;;;;;;21.17;57.86;100355.94;4939187;29;20139;-69
2023/09/19 09:14:19;;;;;;;8.30;2.15;;;;;;;21.14;55.67;100349.88;4937226;29;20131;-68
2023/09/19 09:16:47;;;;;;;6.90;2.70;;;;;;;21.41;55.84;100363.03;4937648;29;20055;-69
2023/09/19 09:19:20;;;;;;;13.25;3.08;;;;;;;21.65;54.52;100355.59;4953206;29;20058;-69
2023/09/19 09:21:47;;;;;;;13.15;2.90;;;;;;;22.30;51.59;100346.19;4957724;29;20047;-69
2023/09/19 09:24:33;;;;;;;9.15;2.58;;;;;;;22.64;49.07;100357.97;4958600;29;20496;-69
2023/09/19 09:27:02;;;;;;;9.15;2.70;;;;;;;22.49;49.91;100360.44;4957699;29;20123;-69
2023/09/19 09:29:41;;;;;;;12.40;2.63;;;;;;;22.48;48.91;100347.88;4958095;29;20404;-69
2023/09/19 09:32:23;;;;;;;7.75;2.83;;;;;;;22.87;47.68;100364.31;4957398;29;20074;-69
2023/09/19 09:34:51;;;;;;;;;;;;;;;23.37;47.06;100357.94;4957226;29;20050;-70
2023/09/19 09:37:22;;;;;;;8.32;2.63;;;;;;;22.78;47.19;100363.94;4957574;29;20187;-67
2023/09/19 09:39:58;;;;;;;6.50;2.60;;;;;;;22.76;46.37;100360.59;4957242;29;20054;-70
2023/09/19 09:42:35;;;;;;;7.68;2.40;;;;;;;23.00;44.88;100359.31;4958231;29;20062;-68
2023/09/19 09:45:15;;;;;;;7.90;2.80;;;;;;;23.47;44.16;100353.44;4940196;29;20071;-70
2023/09/19 09:47:55;;;;;;;11.93;2.95;;;;;;;24.14;42.69;100365.13;4957377;29;20562;-69
2023/09/19 09:50:56;;;;;;;7.25;3.20;;;;;;;22.69;43.78;100357.22;4956462;29;20067;-67
2023/09/19 09:53:31;;;;;;;10.75;3.15;;;;;;;21.07;47.38;100370.16;4951237;29;20058;-68
2023/09/19 09:56:06;;;;;;;11.07;2.83;;;;;;;20.64;49.17;100361.28;4954524;28;20047;-68
2023/09/19 09:58:36;;;;;;;8.23;2.95;;;;;;;20.09;50.21;100371.53;4955642;29;20074;-68
2023/09/19 10:01:10;;;;;;;10.77;3.00;;;;;;;19.31;52.40;100375.88;4954484;29;20047;-69
2023/09/19 10:03:43;;;;;;;9.23;3.60;;;;;;;18.72;54.12;100374.53;4954308;29;20051;-69
2023/09/19 10:06:27;;;;;;;12.15;3.08;;;;;;;20.06;53.20;100383.72;4953551;29;20047;-69
2023/09/19 10:09:06;;;;;;;6.20;2.97;;;;;;;21.16;49.40;100376.94;4953300;29;20051;-69
2023/09/19 10:11:37;;;;;;;9.95;2.83;;;;;;;23.33;44.64;100373.19;4954602;28;20047;-67
2023/09/19 10:14:06;;;;;;;6.90;2.97;;;;;;;23.59;42.86;100372.44;4955521;29;20051;-67
2023/09/19 10:16:36;;;;;;;8.15;2.47;;;;;;;24.92;40.71;100366.34;4955938;29;20051;-69
2023/09/19 10:19:08;;;;;;;7.93;2.88;;;;;;;24.78;39.13;100372.53;4941400;29;20043;-67
2023/09/19 10:21:36;;;;;;;6.35;2.42;;;;;;;25.84;36.97;100366.81;4935051;29;20102;-70
2023/09/19 10:24:07;;;;;;;9.13;2.90;;;;;;;26.46;35.98;100354.00;4934847;29;20064;-70
2023/09/19 10:26:37;;;;;;;8.65;2.65;;;;;;;26.30;35.70;100360.59;4934657;29;20084;-70
2023/09/19 10:29:07;;;;;;;12.75;2.92;;;;;;;26.65;34.40;100358.94;4934933;29;20044;-69
2023/09/19 10:31:36;;;;;;;12.13;3.22;;;;;;;25.79;35.65;100363.22;4934745;29;20472;-68
2023/09/19 10:34:05;;;;;;;9.73;3.00;;;;;;;25.23;37.14;100355.56;4934902;29;20067;-69
2023/09/19 10:36:35;;;;;;;10.07;3.08;;;;;;;26.32;36.38;100355.66;4934675;29;20059;-69
2023/09/19 10:39:06;;;;;;;10.45;3.08;;;;;;;26.05;36.62;100353.94;4934670;29;20052;-68
2023/09/19 10:41:34;;;;;;;9.18;3.30;;;;;;;25.72;35.08;100352.50;4935052;29;20047;-69
2023/09/19 10:44:09;;;;;;;7.93;2.75;;;;;;;25.50;34.61;100358.16;4935071;29;20051;-69
2023/09/19 10:46:38;;;;;;;9.90;2.97;;;;;;;26.36;34.12;100361.44;4934654;29;20055;-68
2023/09/19 10:49:05;;;;;;;14.13;3.40;;;;;;;24.81;34.84;100353.63;4934197;29;20074;-69
2023/09/19 10:51:41;;;;;;;6.53;2.50;;;;;;;24.06;36.29;100360.13;4934531;29;20419;-69
2023/09/19 10:54:13;;;;;;;11.55;3.05;;;;;;;23.04;37.84;100354.19;4933954;29;20044;-69
2023/09/19 10:56:48;;;;;;;13.23;3.20;;;;;;;22.99;37.87;100365.06;4934298;29;20054;-68
2023/09/19 10:59:20;;;;;;;9.48;2.97;;;;;;;22.34;38.74;100363.72;4934893;29;20051;-68
2023/09/19 11:01:58;;;;;;;10.63;3.03;;;;;;;21.75;38.91;100366.72;4934286;29;20048;-69
2023/09/19 11:04:36;;;;;;;11.38;3.60;;;;;;;21.85;39.43;100363.38;4934741;29;20051;-69
2023/09/19 11:07:11;;;;;;;12.00;3.50;;;;;;;21.71;40.14;100371.00;4932819;29;20055;-69
2023/09/19 11:10:01;;;;;;;10.35;2.95;;;;;;;20.82;41.02;100367.69;4933717;29;20075;-69
2023/09/19 11:12:41;;;;;;;10.68;2.90;;;;;;;20.92;41.31;100357.00;4933915;29;20078;-68
2023/09/19 11:15:10;;;;;;;9.63;2.85;;;;;;;20.25;41.40;100367.31;4933646;29;20052;-68
2023/09/19 11:17:47;;;;;;;14.35;2.95;;;;;;;19.72;42.76;100371.63;4936205;29;20039;-69
2023/09/19 11:22:53;;;;;;;11.27;3.35;;;;;;;19.73;43.93;100384.19;4952662;28;20476;-69
2023/09/19 11:25:29;;;;;;;8.65;2.72;;;;;;;19.32;44.47;100388.41;4952600;29;20571;-68
2023/09/19 11:28:18;;;;;;;13.57;3.40;;;;;;;19.64;44.19;100382.81;4952604;29;20582;-68
2023/09/19 11:30:47;;;;;;;13.70;3.67;;;;;;;19.52;44.72;100374.59;4952510;29;20053;-67
2023/09/19 11:33:33;;;;;;;19.90;3.55;;;;;;;19.62;44.90;100380.31;4953178;29;20115;-69
2023/09/19 11:36:16;;;;;;;12.95;4.00;;;;;;;19.89;44.44;100378.09;4951540;29;20058;-69
2023/09/19 11:38:46;;;;;;;16.52;4.07;;;;;;;19.94;45.36;100378.25;4951653;29;20046;-69
2023/09/19 11:44:00;;;;;;;26.17;3.53;;;;;;;19.48;44.29;100389.69;4951752;29;20126;-68
2023/09/19 11:46:27;;;;;;;10.82;3.20;;;;;;;19.67;43.75;100379.63;4951876;29;20051;-68
2023/09/19 11:49:06;;;;;;;11.15;3.05;;;;;;;19.37;42.77;100377.66;4952105;29;20075;-69
2023/09/19 11:51:41;;;;;;;19.77;3.20;;;;;;;19.29;43.00;100382.59;4953362;29;20055;-69
2023/09/19 11:54:17;;;;;;;13.27;3.08;;;;;;;19.52;43.34;100382.75;4951842;29;20110;-68
2023/09/19 11:56:45;;;;;;;10.50;3.08;;;;;;;19.47;43.83;100377.16;4951532;29;20051;-68
2023/09/19 11:59:22;;;;;;;8.57;2.72;;;;;;;19.58;43.72;100373.66;4952580;29;20073;-70
2023/09/19 12:01:57;;;;;;;8.18;2.50;;;;;;;19.72;43.44;100371.63;4951162;29;20047;-69
2023/09/19 12:04:43;;;;;;;6.88;2.40;;;;;;;19.29;42.74;100380.69;4952593;29;20134;-68
2023/09/19 12:07:15;;;;;;;11.32;2.85;;;;;;;19.10;43.14;100376.28;4949572;29;20408;-69
2023/09/19 12:10:17;;;;;;;11.57;2.65;;;;;;;19.38;43.39;100382.06;4952592;28;20118;-69
2023/09/19 12:12:49;;;;;;;13.23;2.90;;;;;;;19.55;43.10;100379.53;4938054;29;20066;-68
2023/09/19 12:15:24;;;;;;;15.57;2.88;;;;;;;19.58;43.44;100386.44;4951633;29;20058;-69
2023/09/19 12:17:51;;;;;;;6.75;2.38;;;;;;;19.82;43.48;100379.25;4950943;28;20054;-69
2023/09/19 12:20:19;;;;;;;17.73;2.70;;;;;;;20.07;42.31;100387.28;4951925;29;20055;-69
2023/09/19 12:22:47;;;;;;;5.82;2.55;;;;;;;19.86;42.44;100377.72;4951756;29;20051;-70
2023/09/19 12:25:16;;;;;;;8.25;2.60;;;;;;;19.76;42.48;100385.59;4951478;29;20069;-69
2023/09/19 12:27:43;;;;;;;12.52;2.85;;;;;;;19.67;42.54;100382.34;4951857;29;20047;-69
2023/09/19 12:30:14;;;;;;;7.70;2.17;;;;;;;19.42;42.14;100377.84;4950416;29;20164;-69
2023/09/19 12:32:52;;;;;;;6.82;2.17;;;;;;;19.62;42.74;100380.31;4952758;29;20047;-68
2023/09/19 12:35:30;;;;;;;7.25;2.65;;;;;;;20.09;42.64;100379.72;4952477;28;20059;-68
2023/09/19 12:37:57;;;;;;;5.63;2.13;;;;;;;20.13;42.45;100370.00;4951988;29;20053;-70
2023/09/19 12:40:28;;;;;;;11.80;2.25;;;;;;;20.54;41.18;100371.09;4951482;29;20138;-70
2023/09/19 12:42:58;;;;;;;9.02;2.40;;;;;;;20.82;40.70;100375.84;4950407;29;20043;-70
2023/09/19 12:45:25;;;;;;;12.90;3.10;;;;;;;20.83;40.48;100359.25;4951513;29;20052;-71
2023/09/19 12:48:31;;;;;;;8.52;2.50;;;;;;;20.94;40.01;100371.25;4951086;29;20051;-71
2023/09/19 12:51:10;;;;;;;8.43;2.70;;;;;;;20.71;40.47;100372.06;4950422;28;20075;-70
2023/09/19 12:53:42;;;;;;;10.77;2.65;;;;;;;20.82;40.22;100363.06;4949232;29;20062;-72
2023/09/19 12:56:12;;;;;;;7.57;2.47;;;;;;;20.76;40.91;100368.63;4951372;28;20050;-72
2023/09/19 12:58:53;;;;;;;8.48;2.67;;;;;;;20.31;41.33;100375.38;4951036;28;20047;-71
2023/09/19 13:01:24;;;;;;;11.80;2.72;;;;;;;20.34;41.21;100372.19;4951096;28;20160;-72
2023/09/19 13:04:20;;;;;;;10.60;2.50;;;;;;;19.71;42.18;100373.53;4950329;29;20510;-71
2023/09/19 13:11:20;;;;;;;5.68;2.03;;;;;;;19.01;43.99;100384.75;4939857;29;20046;-71
2023/09/19 13:14:18;;;;;;;9.15;2.00;;;;;;;19.00;43.99;100387.72;4950588;29;20043;-71
2023/09/19 13:17:06;;;;;;;4.75;2.03;;;;;;;18.98;43.86;100387.91;4951137;28;20047;-71
2023/09/19 13:19:48;;;;;;;9.63;1.90;;;;;;;19.01;44.34;100395.63;4932527;29;20138;-70
2023/09/19 13:22:53;;;;;;;9.30;2.05;;;;;;;18.74;44.42;100383.31;4931836;29;20139;-72
2023/09/19 13:25:21;;;;;;;6.43;2.10;;;;;;;18.49;45.38;100386.84;4930979;29;20079;-70
2023/09/19 13:27:56;;;;;;;7.22;2.05;;;;;;;18.48;45.72;100384.34;4931741;29;20062;-71